createdAt,value
2023-04-29T00:02:39.264Z,5.57
2023-04-29T00:05:40.816Z,4.68
2023-04-29T00:08:42.146Z,3.97
2023-04-29T00:11:43.449Z,5.80
2023-04-29T00:14:44.744Z,5.10
2023-04-29T00:17:46.077Z,4.95
2023-04-29T00:20:47.376Z,5.32
2023-04-29T00:23:48.708Z,3.87
2023-04-29T00:26:50.000Z,5.93
2023-04-29T00:29:51.438Z,4.03
2023-04-29T00:32:52.929Z,4.00
2023-04-29T00:35:54.256Z,4.93
2023-04-29T00:38:55.550Z,3.90
2023-04-29T00:41:56.886Z,4.45
2023-04-29T00:44:58.173Z,4.35
2023-04-29T00:47:59.770Z,4.70
2023-04-29T00:51:01.121Z,4.40
2023-04-29T00:54:02.439Z,4.50
2023-04-29T00:57:03.752Z,3.88
2023-04-29T01:00:05.034Z,4.50
2023-04-29T01:03:06.494Z,3.78
2023-04-29T01:06:07.863Z,4.05
2023-04-29T01:09:09.141Z,3.93
2023-04-29T01:12:10.440Z,3.92
2023-04-29T01:15:11.728Z,4.30
2023-04-29T01:18:13.026Z,3.88
2023-04-29T01:21:14.341Z,4.30
2023-04-29T01:24:15.658Z,4.47
2023-04-29T01:27:16.930Z,3.80
2023-04-29T01:30:18.226Z,4.03
2023-04-29T01:33:19.505Z,5.25
2023-04-29T01:36:20.793Z,5.35
2023-04-29T01:39:22.082Z,3.67
2023-04-29T01:42:23.375Z,4.80
2023-04-29T01:45:24.681Z,4.15
2023-04-29T01:48:25.981Z,4.22
2023-04-29T01:51:27.290Z,4.05
2023-04-29T01:54:28.579Z,4.13
2023-04-29T01:57:29.887Z,4.50
2023-04-29T02:00:31.177Z,3.67
2023-04-29T02:03:32.608Z,4.05
2023-04-29T02:06:33.936Z,4.78
2023-04-29T02:09:35.233Z,4.23
2023-04-29T02:12:36.527Z,3.83
2023-04-29T02:15:37.846Z,5.10
2023-04-29T02:18:39.141Z,3.65
2023-04-29T02:21:40.450Z,4.80
2023-04-29T02:24:41.736Z,4.27
2023-04-29T02:27:43.044Z,4.32
2023-04-29T02:30:44.378Z,4.28
2023-04-29T02:33:45.688Z,4.32
2023-04-29T02:36:46.992Z,3.97
2023-04-29T02:39:48.274Z,4.13
2023-04-29T02:42:49.584Z,4.07
2023-04-29T02:45:50.945Z,4.88
2023-04-29T02:48:52.274Z,3.95
2023-04-29T02:51:53.571Z,4.10
2023-04-29T02:54:54.873Z,4.00
2023-04-29T02:57:56.190Z,4.38
2023-04-29T03:00:57.490Z,5.57
2023-04-29T03:03:58.930Z,4.13
2023-04-29T03:07:00.380Z,4.60
2023-04-29T03:10:01.738Z,4.10
2023-04-29T03:13:03.030Z,3.75
2023-04-29T03:16:04.340Z,4.57
2023-04-29T03:19:05.633Z,3.70
2023-04-29T03:22:06.972Z,3.90
2023-04-29T03:25:08.254Z,4.50
2023-04-29T03:28:09.566Z,5.30
2023-04-29T03:31:10.881Z,4.28
2023-04-29T03:34:12.192Z,4.50
2023-04-29T03:37:13.490Z,4.68
2023-04-29T03:40:14.819Z,3.77
2023-04-29T03:43:16.124Z,3.53
2023-04-29T03:46:17.479Z,3.42
2023-04-29T03:49:18.871Z,3.75
2023-04-29T03:52:20.150Z,3.90
2023-04-29T03:55:21.455Z,4.20
2023-04-29T03:58:22.755Z,3.95
2023-04-29T04:01:24.040Z,4.97
2023-04-29T04:04:25.555Z,4.10
2023-04-29T04:07:26.920Z,3.70
2023-04-29T04:10:28.212Z,4.53
2023-04-29T04:13:29.536Z,4.50
2023-04-29T04:16:30.879Z,4.30
2023-04-29T04:19:32.227Z,3.85
2023-04-29T04:22:33.512Z,3.75
2023-04-29T04:25:34.806Z,3.60
2023-04-29T04:28:36.144Z,4.53
2023-04-29T04:31:37.459Z,3.80
2023-04-29T04:34:38.745Z,4.00
2023-04-29T04:37:40.061Z,3.90
2023-04-29T04:40:41.406Z,4.70
2023-04-29T04:43:42.706Z,6.07
2023-04-29T04:46:44.011Z,4.65
2023-04-29T04:49:45.330Z,5.70
2023-04-29T04:52:46.626Z,3.88
2023-04-29T04:55:47.929Z,5.57
2023-04-29T04:58:49.242Z,3.83
2023-04-29T05:01:50.534Z,5.50
2023-04-29T05:04:51.850Z,5.47
2023-04-29T05:07:53.160Z,4.68
2023-04-29T05:10:54.591Z,4.27
2023-04-29T05:13:55.978Z,4.57
2023-04-29T05:16:57.466Z,3.53
2023-04-29T05:19:58.909Z,4.25
2023-04-29T05:23:00.221Z,4.72
2023-04-29T05:26:01.517Z,4.70
2023-04-29T05:29:02.817Z,4.28
2023-04-29T05:32:04.127Z,4.18
2023-04-29T05:35:07.327Z,4.30
2023-04-29T05:38:08.878Z,4.40
2023-04-29T05:41:10.203Z,4.63
2023-04-29T05:44:11.521Z,4.15
2023-04-29T05:47:12.825Z,4.78
2023-04-29T05:50:14.118Z,4.13
2023-04-29T05:53:15.413Z,4.55
2023-04-29T05:56:16.738Z,3.70
2023-04-29T05:59:18.036Z,5.43
2023-04-29T06:02:19.443Z,4.22
2023-04-29T06:05:21.120Z,3.50
2023-04-29T06:08:22.586Z,4.10
2023-04-29T06:11:23.892Z,4.90
2023-04-29T06:14:25.222Z,4.63
2023-04-29T06:17:26.542Z,4.10
2023-04-29T06:20:27.884Z,5.28
2023-04-29T06:23:29.258Z,4.85
2023-04-29T06:26:30.558Z,3.87
2023-04-29T06:29:31.851Z,4.28
2023-04-29T06:32:33.203Z,4.10
2023-04-29T06:35:34.536Z,3.60
2023-04-29T06:38:35.821Z,4.88
2023-04-29T06:41:37.135Z,4.40
2023-04-29T06:44:38.425Z,3.92
2023-04-29T06:47:39.766Z,4.05
2023-04-29T06:50:41.131Z,3.92
2023-04-29T06:53:42.453Z,4.22
2023-04-29T06:56:43.752Z,4.20
2023-04-29T06:59:45.044Z,3.53
2023-04-29T07:02:46.450Z,3.95
2023-04-29T07:05:47.839Z,3.90
2023-04-29T07:08:49.184Z,4.00
2023-04-29T07:11:50.500Z,3.77
2023-04-29T07:14:51.815Z,3.85
2023-04-29T07:17:53.122Z,4.32
2023-04-29T07:20:54.470Z,4.03
2023-04-29T07:23:55.774Z,4.10
2023-04-29T07:26:57.157Z,4.27
2023-04-29T07:29:58.464Z,4.72
2023-04-29T07:32:59.828Z,4.35
2023-04-29T07:36:01.147Z,4.50
2023-04-29T07:39:02.459Z,3.63
2023-04-29T07:42:03.731Z,4.20
2023-04-29T07:45:05.101Z,4.00
2023-04-29T07:48:06.632Z,4.68
2023-04-29T07:51:08.116Z,4.03
2023-04-29T07:54:09.436Z,4.07
2023-04-29T07:57:10.735Z,4.60
2023-04-29T08:00:12.059Z,3.90
2023-04-29T08:03:13.482Z,4.13
2023-04-29T08:06:15.088Z,4.13
2023-04-29T08:09:16.454Z,4.43
2023-04-29T08:12:17.755Z,4.50
2023-04-29T08:15:19.057Z,4.47
2023-04-29T08:18:20.376Z,4.43
2023-04-29T08:21:21.679Z,4.32
2023-04-29T08:24:22.959Z,4.13
2023-04-29T08:27:24.267Z,4.20
2023-04-29T08:30:25.566Z,4.05
2023-04-29T08:33:26.863Z,6.13
2023-04-29T08:36:28.171Z,4.22
2023-04-29T08:39:29.468Z,4.82
2023-04-29T08:42:30.762Z,5.37
2023-04-29T08:45:32.090Z,5.68
2023-04-29T08:48:33.511Z,5.45
2023-04-29T08:51:34.927Z,3.85
2023-04-29T08:54:36.233Z,3.60
2023-04-29T08:57:37.551Z,4.63
2023-04-29T09:00:38.846Z,5.63
2023-04-29T09:03:40.258Z,4.53
2023-04-29T09:06:41.617Z,4.18
2023-04-29T09:09:42.935Z,4.85
2023-04-29T09:12:44.223Z,5.87
2023-04-29T09:15:45.554Z,4.10
2023-04-29T09:18:46.850Z,4.40
2023-04-29T09:21:48.174Z,3.60
2023-04-29T09:24:49.457Z,4.00
2023-04-29T09:27:50.813Z,5.03
2023-04-29T09:30:52.096Z,4.47
2023-04-29T09:33:53.417Z,4.10
2023-04-29T09:36:54.720Z,3.70
2023-04-29T09:39:56.055Z,4.43
2023-04-29T09:42:57.354Z,4.43
2023-04-29T09:45:58.689Z,3.35
2023-04-29T09:49:00.004Z,3.72
2023-04-29T09:52:01.307Z,5.28
2023-04-29T09:55:02.606Z,4.35
2023-04-29T09:58:03.909Z,3.63
2023-04-29T10:01:05.260Z,4.88
2023-04-29T10:04:06.668Z,4.07
2023-04-29T10:07:07.991Z,3.33
2023-04-29T10:10:09.319Z,3.67
2023-04-29T10:13:10.609Z,4.77
2023-04-29T10:16:11.941Z,3.20
2023-04-29T10:19:13.259Z,4.18
2023-04-29T10:22:14.579Z,3.58
2023-04-29T10:25:15.875Z,3.75
2023-04-29T10:28:17.177Z,3.77
2023-04-29T10:31:18.479Z,5.80
2023-04-29T10:34:19.816Z,3.75
2023-04-29T10:37:21.108Z,3.83
2023-04-29T10:40:22.436Z,3.05
2023-04-29T10:43:23.739Z,3.60
2023-04-29T10:46:25.083Z,3.15
2023-04-29T10:49:26.389Z,3.42
2023-04-29T10:52:27.708Z,3.13
2023-04-29T10:55:29.000Z,4.95
2023-04-29T10:58:30.309Z,3.70
2023-04-29T11:01:31.729Z,4.22
2023-04-29T11:04:33.141Z,3.30
2023-04-29T11:07:34.484Z,2.90
2023-04-29T11:10:35.825Z,3.47
2023-04-29T11:13:37.103Z,3.83
2023-04-29T11:16:38.468Z,3.25
2023-04-29T11:19:39.800Z,3.40
2023-04-29T11:22:41.095Z,3.35
2023-04-29T11:25:42.393Z,3.58
2023-04-29T11:28:43.718Z,3.27
2023-04-29T11:31:45.151Z,3.80
2023-04-29T11:34:46.558Z,2.70
2023-04-29T11:37:47.865Z,4.18
2023-04-29T11:40:49.173Z,3.35
2023-04-29T11:43:51.681Z,3.60
2023-04-29T11:46:52.982Z,2.70
2023-04-29T11:49:54.260Z,3.10
2023-04-29T11:52:55.572Z,3.90
2023-04-29T11:55:56.872Z,3.10
2023-04-29T11:58:58.184Z,2.90
2023-04-29T12:01:59.472Z,3.10
2023-04-29T12:05:01.189Z,2.90
2023-04-29T12:08:02.943Z,2.95
2023-04-29T12:11:04.261Z,2.80
2023-04-29T12:14:05.568Z,3.10
2023-04-29T12:17:06.866Z,2.97
2023-04-29T12:20:08.173Z,3.38
2023-04-29T12:23:09.468Z,3.30
2023-04-29T12:26:10.759Z,3.08
2023-04-29T12:29:12.059Z,3.57
2023-04-29T12:32:13.355Z,3.13
2023-04-29T12:35:14.631Z,3.63
2023-04-29T12:38:15.937Z,2.92
2023-04-29T12:41:17.433Z,3.33
2023-04-29T12:44:18.888Z,2.80
2023-04-29T12:47:20.239Z,3.03
2023-04-29T12:50:21.558Z,2.50
2023-04-29T12:53:22.893Z,3.85
2023-04-29T12:56:24.180Z,3.03
2023-04-29T12:59:25.492Z,3.60
2023-04-29T13:02:26.917Z,3.70
2023-04-29T13:05:28.426Z,2.83
2023-04-29T13:08:30.257Z,3.28
2023-04-29T13:11:34.486Z,3.47
2023-04-29T13:14:36.207Z,2.37
2023-04-29T13:17:37.533Z,2.88
2023-04-29T13:20:42.311Z,3.08
2023-04-29T13:23:44.045Z,3.03
2023-04-29T13:26:45.468Z,2.42
2023-04-29T13:29:46.765Z,2.87
2023-04-29T13:32:55.155Z,2.42
2023-04-29T13:35:59.972Z,2.90
2023-04-29T13:39:01.278Z,3.35
2023-04-29T13:42:03.299Z,2.92
2023-04-29T13:45:04.954Z,2.37
2023-04-29T13:48:16.991Z,3.03
2023-04-29T13:58:12.419Z,2.25
2023-04-29T14:04:01.567Z,2.25
2023-04-29T14:07:03.028Z,2.60
2023-04-29T14:10:04.312Z,2.80
2023-04-29T14:13:05.617Z,2.50
2023-04-29T14:16:07.018Z,2.43
2023-04-29T14:19:08.395Z,2.38
2023-04-29T14:22:09.692Z,2.65
2023-04-29T14:25:11.013Z,2.63
2023-04-29T14:28:12.322Z,2.40
2023-04-29T14:31:13.833Z,2.83
2023-04-29T14:34:15.283Z,2.63
2023-04-29T14:37:16.587Z,2.38
2023-04-29T14:40:17.898Z,2.65
2023-04-29T14:43:19.196Z,2.20
2023-04-29T14:46:20.514Z,2.57
2023-04-29T14:49:21.824Z,2.70
2023-04-29T14:52:23.140Z,2.40
2023-04-29T14:55:24.451Z,2.50
2023-04-29T14:58:25.737Z,2.55
2023-04-29T15:01:27.601Z,2.20
2023-04-29T15:04:30.061Z,2.58
2023-04-29T15:07:31.930Z,2.90
2023-04-29T15:10:33.345Z,3.08
2023-04-29T15:13:34.661Z,2.40
2023-04-29T15:16:35.948Z,2.50
2023-04-29T15:19:37.286Z,2.63
2023-04-29T15:22:38.607Z,2.60
2023-04-29T15:25:39.909Z,3.30
2023-04-29T15:28:41.194Z,2.28
2023-04-29T15:31:42.521Z,2.43
2023-04-29T15:34:43.832Z,2.72
2023-04-29T15:37:45.144Z,3.00
2023-04-29T15:40:46.472Z,2.80
2023-04-29T15:43:47.758Z,3.03
2023-04-29T15:46:49.088Z,2.57
2023-04-29T15:49:50.385Z,2.47
2023-04-29T15:52:51.708Z,2.70
2023-04-29T15:55:53.014Z,2.72
2023-04-29T15:58:54.331Z,2.92
2023-04-29T16:01:55.639Z,2.30
2023-04-29T16:04:56.949Z,3.03
2023-04-29T16:07:58.278Z,2.38
2023-04-29T16:10:59.595Z,2.28
2023-04-29T16:14:00.911Z,3.10
2023-04-29T16:17:02.293Z,2.53
2023-04-29T16:20:03.621Z,2.65
2023-04-29T16:23:04.926Z,4.07
2023-04-29T16:26:06.223Z,3.05
2023-04-29T16:29:07.528Z,2.55
2023-04-29T16:32:08.824Z,2.67
2023-04-29T16:35:10.131Z,2.40
2023-04-29T16:38:11.483Z,2.50
2023-04-29T16:41:12.774Z,2.95
2023-04-29T16:44:14.091Z,2.70
2023-04-29T16:47:15.394Z,2.03
2023-04-29T16:50:16.690Z,2.63
2023-04-29T16:53:18.000Z,2.88
2023-04-29T16:56:19.292Z,2.58
2023-04-29T16:59:20.602Z,2.60
2023-04-29T17:02:22.031Z,3.30
2023-04-29T17:05:23.371Z,2.40
2023-04-29T17:08:24.701Z,3.05
2023-04-29T17:11:26.000Z,2.35
2023-04-29T17:14:27.324Z,2.42
2023-04-29T17:17:28.691Z,2.40
2023-04-29T17:20:30.346Z,2.53
2023-04-29T17:23:31.676Z,2.67
2023-04-29T17:26:33.001Z,2.90
2023-04-29T17:29:34.303Z,2.75
2023-04-29T17:32:35.974Z,2.47
2023-04-29T17:35:37.589Z,2.67
2023-04-29T17:38:39.348Z,2.83
2023-04-29T17:41:41.192Z,2.72
2023-04-29T17:44:42.898Z,2.40
2023-04-29T17:47:44.356Z,2.10
2023-04-29T17:50:45.729Z,2.85
2023-04-29T17:53:47.076Z,2.85
2023-04-29T17:56:48.364Z,2.75
2023-04-29T17:59:50.031Z,5.72
2023-04-29T18:02:51.512Z,2.83
2023-04-29T18:05:53.406Z,2.50
2023-04-29T18:08:54.833Z,2.88
2023-04-29T18:11:56.139Z,2.70
2023-04-29T18:14:57.458Z,2.75
2023-04-29T18:17:58.822Z,2.90
2023-04-29T18:21:00.147Z,3.13
2023-04-29T18:24:01.790Z,3.05
2023-04-29T18:27:03.149Z,2.88
2023-04-29T18:30:04.491Z,2.85
2023-04-29T18:33:05.834Z,2.90
2023-04-29T18:36:07.167Z,2.85
2023-04-29T18:39:08.481Z,3.17
2023-04-29T18:42:09.779Z,3.63
2023-04-29T18:45:11.135Z,2.72
2023-04-29T18:48:12.487Z,3.00
2023-04-29T18:51:14.345Z,3.10
2023-04-29T18:54:16.099Z,3.45
2023-04-29T18:57:17.480Z,2.80
2023-04-29T19:00:18.836Z,3.67
2023-04-29T19:03:21.065Z,3.07
2023-04-29T19:06:22.743Z,3.28
2023-04-29T19:09:24.248Z,3.55
2023-04-29T19:12:25.552Z,3.67
2023-04-29T19:15:26.931Z,3.10
2023-04-29T19:18:28.419Z,3.37
2023-04-29T19:21:30.129Z,3.20
2023-04-29T19:24:31.512Z,3.25
2023-04-29T19:27:33.330Z,3.72
2023-04-29T19:30:34.848Z,3.85
2023-04-29T19:33:36.505Z,2.93
2023-04-29T19:36:38.356Z,3.33
2023-04-29T19:39:40.143Z,3.78
2023-04-29T19:42:41.975Z,3.88
2023-04-29T19:45:43.756Z,3.10
2023-04-29T19:48:45.432Z,3.27
2023-04-29T19:51:47.176Z,2.83
2023-04-29T19:54:48.649Z,3.03
2023-04-29T19:57:49.959Z,2.85
2023-04-29T20:00:51.658Z,2.83
2023-04-29T20:03:53.227Z,2.60
2023-04-29T20:06:54.578Z,3.42
2023-04-29T20:09:56.117Z,2.50
2023-04-29T20:12:58.070Z,3.40
2023-04-29T20:15:59.496Z,3.60
2023-04-29T20:19:00.829Z,2.73
2023-04-29T20:22:02.124Z,3.08
2023-04-29T20:25:03.520Z,2.88
2023-04-29T20:28:04.821Z,3.03
2023-04-29T20:31:06.117Z,2.97
2023-04-29T20:34:07.749Z,2.60
2023-04-29T20:37:09.244Z,2.67
2023-04-29T20:40:10.645Z,3.40
2023-04-29T20:43:12.116Z,3.00
2023-04-29T20:46:13.482Z,2.50
2023-04-29T20:49:14.871Z,2.60
2023-04-29T20:52:16.193Z,2.40
2023-04-29T20:55:17.506Z,3.50
2023-04-29T20:58:18.828Z,2.38
2023-04-29T21:01:20.279Z,2.78
2023-04-29T21:04:21.671Z,4.00
2023-04-29T21:07:23.030Z,2.75
2023-04-29T21:10:24.332Z,2.85
2023-04-29T21:13:25.631Z,2.42
2023-04-29T21:16:27.044Z,2.55
2023-04-29T21:19:28.369Z,2.60
2023-04-29T21:22:29.650Z,2.20
2023-04-29T21:25:30.952Z,2.63
2023-04-29T21:28:32.292Z,2.83
2023-04-29T21:31:33.599Z,2.53
2023-04-29T21:34:34.970Z,2.73
2023-04-29T21:37:36.263Z,2.33
2023-04-29T21:40:37.560Z,2.47
2023-04-29T21:43:38.870Z,2.40
2023-04-29T21:46:40.226Z,2.80
2023-04-29T21:49:41.582Z,2.00
2023-04-29T21:52:42.875Z,2.60
2023-04-29T21:55:44.162Z,2.25
2023-04-29T21:58:45.466Z,2.30
2023-04-29T22:01:46.815Z,2.72
2023-04-29T22:04:48.128Z,1.73
2023-04-29T22:07:49.448Z,2.85
2023-04-29T22:10:50.748Z,3.53
2023-04-29T22:13:52.062Z,2.20
2023-04-29T22:16:53.343Z,2.33
2023-04-29T22:19:54.895Z,2.60
2023-04-29T22:22:56.323Z,2.53
2023-04-29T22:25:57.631Z,1.80
2023-04-29T22:28:58.923Z,2.83
2023-04-29T22:32:00.295Z,2.75
2023-04-29T22:35:01.657Z,2.53
2023-04-29T22:38:03.010Z,1.90
2023-04-29T22:41:04.314Z,1.88
2023-04-29T22:44:05.623Z,2.63
2023-04-29T22:47:06.934Z,2.00
2023-04-29T22:50:08.246Z,2.10
2023-04-29T22:53:09.566Z,2.13
2023-04-29T22:56:10.881Z,2.15
2023-04-29T22:59:12.273Z,2.20
2023-04-29T23:02:13.583Z,2.42
2023-04-29T23:05:14.890Z,2.43
2023-04-29T23:08:16.190Z,2.88
2023-04-29T23:11:17.482Z,2.13
2023-04-29T23:14:19.163Z,2.30
2023-04-29T23:17:20.436Z,2.80
2023-04-29T23:20:21.730Z,2.57
2023-04-29T23:23:23.018Z,2.03
2023-04-29T23:26:24.328Z,2.15
2023-04-29T23:29:25.629Z,2.17
2023-04-29T23:32:26.961Z,1.92
2023-04-29T23:35:28.292Z,1.87
2023-04-29T23:38:29.588Z,2.20
2023-04-29T23:41:30.887Z,1.75
2023-04-29T23:44:32.209Z,1.98
2023-04-29T23:47:33.516Z,2.10
2023-04-29T23:50:34.823Z,2.60
2023-04-29T23:53:36.180Z,2.42
2023-04-29T23:56:37.503Z,2.00
2023-04-29T23:59:38.785Z,2.20
